createdAt,value
2023-03-21T00:01:12.393Z,16.40
2023-03-21T00:03:51.369Z,16.40
2023-03-21T00:06:29.080Z,16.70
2023-03-21T00:09:09.477Z,17.00
2023-03-21T00:11:47.091Z,17.10
2023-03-21T00:14:25.212Z,17.10
2023-03-21T00:17:01.781Z,17.40
2023-03-21T00:19:41.114Z,17.50
2023-03-21T00:22:22.062Z,17.70
2023-03-21T00:25:01.624Z,17.90
2023-03-21T00:28:00.883Z,18.20
2023-03-21T00:30:34.409Z,18.60
2023-03-21T00:33:22.024Z,19.10
2023-03-21T00:36:06.634Z,19.40
2023-03-21T00:38:48.060Z,19.60
2023-03-21T00:41:41.461Z,19.70
2023-03-21T00:44:27.116Z,20.10
2023-03-21T00:47:07.859Z,20.00
2023-03-21T00:49:49.160Z,20.20
2023-03-21T00:52:40.324Z,20.50
2023-03-21T00:55:28.446Z,20.70
2023-03-21T00:58:07.247Z,20.60
2023-03-21T01:00:45.156Z,20.60
2023-03-21T01:03:25.547Z,20.30
2023-03-21T01:06:14.676Z,20.70
2023-03-21T01:08:54.944Z,21.30
2023-03-21T01:11:36.563Z,21.40
2023-03-21T01:14:22.633Z,21.80
2023-03-21T01:17:00.086Z,22.10
2023-03-21T01:19:51.117Z,22.20
2023-03-21T01:22:34.653Z,22.60
2023-03-21T01:25:22.416Z,22.80
2023-03-21T01:28:04.520Z,23.10
2023-03-21T01:30:43.825Z,23.40
2023-03-21T01:33:22.310Z,23.50
2023-03-21T01:36:11.823Z,23.60
2023-03-21T01:38:51.181Z,24.00
2023-03-21T01:41:46.984Z,23.70
2023-03-21T01:44:32.933Z,23.70
2023-03-21T01:47:12.878Z,23.80
2023-03-21T01:50:03.241Z,23.60
2023-03-21T01:53:05.814Z,23.40
2023-03-21T01:55:46.373Z,23.90
2023-03-21T01:58:43.267Z,24.60
2023-03-21T02:01:52.300Z,24.50
2023-03-21T02:04:36.468Z,24.50
2023-03-21T02:07:31.202Z,24.70
2023-03-21T02:10:23.615Z,24.80
2023-03-21T02:13:11.128Z,25.40
2023-03-21T02:15:55.912Z,25.60
2023-03-21T02:18:47.457Z,25.10
2023-03-21T02:21:59.160Z,25.10
2023-03-21T02:25:22.139Z,25.20
2023-03-21T02:28:03.284Z,25.40
2023-03-21T02:31:05.805Z,24.90
2023-03-21T02:34:16.355Z,24.30
2023-03-21T02:37:10.165Z,24.80
2023-03-21T02:40:02.329Z,25.00
2023-03-21T02:42:54.717Z,25.20
2023-03-21T02:45:38.309Z,25.20
2023-03-21T02:48:28.066Z,25.30
2023-03-21T02:51:13.519Z,25.40
2023-03-21T02:54:24.871Z,25.30
2023-03-21T02:57:00.798Z,25.00
2023-03-21T02:59:51.573Z,25.40
2023-03-21T03:02:44.524Z,25.10
2023-03-21T03:05:25.281Z,24.80
2023-03-21T03:08:15.097Z,25.50
2023-03-21T03:11:08.322Z,25.50
2023-03-21T03:14:38.393Z,25.60
2023-03-21T03:17:28.768Z,25.90
2023-03-21T03:20:27.377Z,25.50
2023-03-21T03:23:18.099Z,25.80
2023-03-21T03:26:06.278Z,26.30
2023-03-21T03:28:51.720Z,26.20
2023-03-21T03:31:34.821Z,26.40
2023-03-21T03:34:14.460Z,25.50
2023-03-21T03:36:57.977Z,25.60
2023-03-21T03:39:41.036Z,25.70
2023-03-21T03:42:28.454Z,25.90
2023-03-21T03:45:15.573Z,25.90
2023-03-21T03:47:59.508Z,25.60
2023-03-21T03:50:45.249Z,24.70
2023-03-21T03:53:32.510Z,24.60
2023-03-21T03:56:15.947Z,24.50
2023-03-21T03:58:58.403Z,24.20
2023-03-21T04:01:52.539Z,24.60
2023-03-21T04:04:30.870Z,24.70
2023-03-21T04:07:08.132Z,24.80
2023-03-21T04:09:47.793Z,24.60
2023-03-21T04:12:30.959Z,24.60
2023-03-21T04:15:26.404Z,24.70
2023-03-21T04:18:11.078Z,24.90
2023-03-21T04:20:50.153Z,25.20
2023-03-21T04:23:37.660Z,25.10
2023-03-21T04:26:22.640Z,25.10
2023-03-21T04:29:22.748Z,24.90
2023-03-21T04:32:35.712Z,24.70
2023-03-21T04:35:20.588Z,24.30
2023-03-21T04:38:02.734Z,24.50
2023-03-21T04:40:45.068Z,24.40
2023-03-21T04:43:26.774Z,24.40
2023-03-21T04:46:08.415Z,24.60
2023-03-21T04:48:47.668Z,24.80
2023-03-21T04:51:25.945Z,24.90
2023-03-21T04:56:44.821Z,25.10
2023-03-21T04:59:30.685Z,25.10
2023-03-21T05:02:08.846Z,24.60
2023-03-21T05:04:51.097Z,24.80
2023-03-21T05:07:30.184Z,24.90
2023-03-21T05:10:11.357Z,24.80
2023-03-21T05:12:56.902Z,24.80
2023-03-21T05:15:39.148Z,24.40
2023-03-21T05:18:26.445Z,24.60
2023-03-21T05:21:23.215Z,24.70
2023-03-21T05:24:00.190Z,24.50
2023-03-21T05:26:45.467Z,24.10
2023-03-21T05:29:25.889Z,24.00
2023-03-21T05:32:14.504Z,23.90
2023-03-21T05:35:00.119Z,23.70
2023-03-21T05:37:40.117Z,23.50
2023-03-21T05:40:38.403Z,23.00
2023-03-21T05:43:15.934Z,22.90
2023-03-21T05:45:52.676Z,23.00
2023-03-21T05:48:30.195Z,23.00
2023-03-21T05:51:29.825Z,22.90
2023-03-21T05:54:18.112Z,22.70
2023-03-21T05:57:07.379Z,22.70
2023-03-21T06:00:01.895Z,22.50
2023-03-21T06:02:54.071Z,22.60
2023-03-21T06:05:56.499Z,22.70
2023-03-21T06:08:38.142Z,22.50
2023-03-21T06:11:36.089Z,22.40
2023-03-21T06:14:34.974Z,22.50
2023-03-21T06:17:44.273Z,22.60
2023-03-21T06:20:42.547Z,22.40
2023-03-21T06:23:27.716Z,22.50
2023-03-21T06:26:26.190Z,22.60
2023-03-21T06:29:06.777Z,22.80
2023-03-21T06:31:50.985Z,22.90
2023-03-21T06:34:34.507Z,22.90
2023-03-21T06:37:17.661Z,22.90
2023-03-21T06:40:04.496Z,23.00
2023-03-21T06:42:47.106Z,22.80
2023-03-21T06:46:11.577Z,23.30
2023-03-21T06:48:56.048Z,23.00
2023-03-21T06:51:39.156Z,23.20
2023-03-21T06:54:52.245Z,23.30
2023-03-21T06:57:36.188Z,23.70
2023-03-21T07:00:17.692Z,23.70
2023-03-21T07:03:02.136Z,23.70
2023-03-21T07:05:46.753Z,23.70
2023-03-21T07:08:24.671Z,23.60
2023-03-21T07:11:08.528Z,23.50
2023-03-21T07:13:50.246Z,23.50
2023-03-21T07:16:44.542Z,23.30
2023-03-21T07:19:25.029Z,23.30
2023-03-21T07:22:10.517Z,22.60
2023-03-21T07:25:02.386Z,23.00
2023-03-21T07:27:53.034Z,23.20
2023-03-21T07:30:35.092Z,23.20
2023-03-21T07:33:19.374Z,23.20
2023-03-21T07:35:59.196Z,23.20
2023-03-21T07:38:45.586Z,23.10
2023-03-21T07:41:27.492Z,22.90
2023-03-21T07:44:26.581Z,22.70
2023-03-21T07:47:15.801Z,22.50
2023-03-21T07:50:14.623Z,22.40
2023-03-21T07:53:07.987Z,22.30
2023-03-21T07:55:46.135Z,22.30
2023-03-21T07:58:33.111Z,22.20
2023-03-21T08:01:30.284Z,22.30
2023-03-21T08:04:24.069Z,22.30
2023-03-21T08:07:11.065Z,22.40
2023-03-21T08:10:01.359Z,22.50
2023-03-21T08:12:40.695Z,22.50
2023-03-21T08:15:21.535Z,22.50
2023-03-21T08:18:12.317Z,22.50
2023-03-21T08:21:27.467Z,22.30
2023-03-21T08:24:38.267Z,22.40
2023-03-21T08:27:15.274Z,22.50
2023-03-21T08:29:55.079Z,22.50
2023-03-21T08:32:37.289Z,22.40
2023-03-21T08:35:24.888Z,22.30
2023-03-21T08:38:05.704Z,22.30
2023-03-21T08:40:51.411Z,22.20
2023-03-21T08:43:31.565Z,22.20
2023-03-21T08:46:23.131Z,22.30
2023-03-21T08:49:04.498Z,22.30
2023-03-21T08:51:49.223Z,22.30
2023-03-21T08:54:31.331Z,22.30
2023-03-21T08:57:13.337Z,22.20
2023-03-21T08:59:50.730Z,22.20
2023-03-21T09:02:29.168Z,22.10
2023-03-21T09:05:13.543Z,21.90
2023-03-21T09:07:53.020Z,22.00
2023-03-21T09:10:38.264Z,22.00
2023-03-21T09:13:19.539Z,22.10
2023-03-21T09:15:58.343Z,21.90
2023-03-21T09:18:46.756Z,21.80
2023-03-21T09:21:25.179Z,21.70
2023-03-21T09:24:07.711Z,21.90
2023-03-21T09:26:45.442Z,21.90
2023-03-21T09:29:25.392Z,21.80
2023-03-21T09:32:07.760Z,21.90
2023-03-21T09:34:44.427Z,21.80
2023-03-21T09:37:22.985Z,21.70
2023-03-21T09:39:59.707Z,21.60
2023-03-21T09:42:49.118Z,21.40
2023-03-21T09:45:36.994Z,21.40
2023-03-21T09:48:33.512Z,21.50
2023-03-21T09:51:11.103Z,21.40
2023-03-21T09:53:54.926Z,21.20
2023-03-21T09:56:35.913Z,21.20
2023-03-21T09:59:14.566Z,21.10
2023-03-21T10:01:59.257Z,21.10
2023-03-21T10:04:47.984Z,21.00
2023-03-21T10:07:32.437Z,20.90
2023-03-21T10:10:11.873Z,20.90
2023-03-21T10:12:49.574Z,20.90
2023-03-21T10:15:28.304Z,20.70
2023-03-21T10:18:22.949Z,20.70
2023-03-21T10:21:00.226Z,20.60
2023-03-21T10:23:37.724Z,20.60
2023-03-21T10:26:21.102Z,20.60
2023-03-21T10:29:00.990Z,20.50
2023-03-21T10:31:40.345Z,20.50
2023-03-21T10:34:26.269Z,20.40
2023-03-21T10:37:02.523Z,20.40
2023-03-21T10:39:48.421Z,20.40
2023-03-21T10:42:31.118Z,20.50
2023-03-21T10:45:09.506Z,20.50
2023-03-21T10:48:20.647Z,20.40
2023-03-21T10:51:09.010Z,20.40
2023-03-21T10:53:53.441Z,20.40
2023-03-21T10:56:38.594Z,20.30
2023-03-21T10:59:25.348Z,20.30
2023-03-21T11:02:04.259Z,20.20
2023-03-21T11:04:43.771Z,20.10
2023-03-21T11:07:28.741Z,20.10
2023-03-21T11:10:28.573Z,20.00
2023-03-21T11:13:16.336Z,19.90
2023-03-21T11:16:02.116Z,19.80
2023-03-21T11:18:46.316Z,19.60
2023-03-21T11:21:35.496Z,19.60
2023-03-21T11:24:23.995Z,19.50
2023-03-21T11:27:09.175Z,19.60
2023-03-21T11:29:50.838Z,19.60
2023-03-21T11:32:36.768Z,19.50
2023-03-21T11:35:22.636Z,19.60
2023-03-21T11:38:04.867Z,19.50
2023-03-21T11:41:11.990Z,19.50
2023-03-21T11:44:04.528Z,19.40
2023-03-21T11:46:51.778Z,19.50
2023-03-21T11:49:31.146Z,19.40
2023-03-21T11:52:27.666Z,19.50
2023-03-21T11:55:40.589Z,19.40
2023-03-21T11:58:45.728Z,19.50
2023-03-21T12:01:35.913Z,19.40
2023-03-21T12:04:33.491Z,19.30
2023-03-21T12:07:22.271Z,19.20
2023-03-21T12:10:13.943Z,19.10
2023-03-21T12:13:07.982Z,19.00
2023-03-21T12:16:00.891Z,18.80
2023-03-21T12:19:04.695Z,18.70
2023-03-21T12:21:56.021Z,18.80
2023-03-21T12:24:42.494Z,18.70
2023-03-21T12:27:46.312Z,18.50
2023-03-21T12:30:41.495Z,18.50
2023-03-21T12:33:50.091Z,18.50
2023-03-21T12:36:50.983Z,18.50
2023-03-21T12:39:36.106Z,18.50
2023-03-21T12:42:41.636Z,18.70
2023-03-21T12:45:47.314Z,18.70
2023-03-21T12:48:49.520Z,18.70
2023-03-21T12:51:40.889Z,18.70
2023-03-21T12:54:39.597Z,18.70
2023-03-21T12:57:19.992Z,18.70
2023-03-21T13:00:16.203Z,18.80
2023-03-21T13:03:00.594Z,18.80
2023-03-21T13:05:39.822Z,18.80
2023-03-21T13:08:31.054Z,18.80
2023-03-21T13:11:13.869Z,18.80
2023-03-21T13:13:58.443Z,18.80
2023-03-21T13:17:01.286Z,18.80
2023-03-21T13:19:44.721Z,18.90
2023-03-21T13:22:32.862Z,18.70
2023-03-21T13:25:34.025Z,18.70
2023-03-21T13:28:22.378Z,18.70
2023-03-21T13:31:01.521Z,18.60
2023-03-21T13:33:48.677Z,18.60
2023-03-21T13:36:37.652Z,18.60
2023-03-21T13:39:26.859Z,18.70
2023-03-21T13:42:35.270Z,18.70
2023-03-21T13:45:33.960Z,18.70
2023-03-21T13:48:58.518Z,18.70
2023-03-21T13:52:05.744Z,18.90
2023-03-21T13:55:05.380Z,19.00
2023-03-21T13:57:48.154Z,18.70
2023-03-21T14:00:45.075Z,18.70
2023-03-21T14:03:29.260Z,18.60
2023-03-21T14:06:10.957Z,18.80
2023-03-21T14:09:00.141Z,18.80
2023-03-21T14:11:41.967Z,19.00
2023-03-21T14:14:28.345Z,19.10
2023-03-21T14:17:08.710Z,19.20
2023-03-21T14:19:49.032Z,19.20
2023-03-21T14:22:33.828Z,19.20
2023-03-21T14:25:14.465Z,19.20
2023-03-21T14:27:59.249Z,19.30
2023-03-21T14:30:45.312Z,19.20
2023-03-21T14:33:37.496Z,19.20
2023-03-21T14:36:21.630Z,19.20
2023-03-21T14:39:20.362Z,19.20
2023-03-21T14:42:01.182Z,19.20
2023-03-21T14:44:54.817Z,19.00
2023-03-21T14:47:40.037Z,18.90
2023-03-21T14:50:33.170Z,18.90
2023-03-21T14:53:17.324Z,18.70
2023-03-21T14:56:06.177Z,18.50
2023-03-21T14:58:49.168Z,18.50
2023-03-21T15:01:34.511Z,18.50
2023-03-21T15:04:21.532Z,18.70
2023-03-21T15:07:11.219Z,18.70
2023-03-21T15:09:59.404Z,18.70
2023-03-21T15:12:36.541Z,18.70
2023-03-21T15:15:20.450Z,18.70
2023-03-21T15:17:58.463Z,18.60
2023-03-21T15:20:47.414Z,18.60
2023-03-21T15:23:42.231Z,18.70
2023-03-21T15:26:25.493Z,18.60
2023-03-21T15:29:09.192Z,18.60
2023-03-21T15:31:57.425Z,18.60
2023-03-21T15:34:51.723Z,18.50
2023-03-21T15:37:35.440Z,18.50
2023-03-21T15:40:32.000Z,18.60
2023-03-21T15:43:30.551Z,18.60
2023-03-21T15:46:23.867Z,18.60
2023-03-21T15:49:31.896Z,18.60
2023-03-21T15:52:23.420Z,18.60
2023-03-21T15:55:04.367Z,18.60
2023-03-21T15:57:57.094Z,18.60
2023-03-21T16:00:54.342Z,18.60
2023-03-21T16:03:41.950Z,18.60
2023-03-21T16:06:29.872Z,18.60
2023-03-21T16:09:29.538Z,18.60
2023-03-21T16:12:21.966Z,18.50
2023-03-21T16:15:07.589Z,18.50
2023-03-21T16:17:58.029Z,18.60
2023-03-21T16:20:39.609Z,18.50
2023-03-21T16:23:18.636Z,18.50
2023-03-21T16:25:59.910Z,18.60
2023-03-21T16:28:45.955Z,18.50
2023-03-21T16:31:30.916Z,18.60
2023-03-21T16:34:08.595Z,18.60
2023-03-21T16:36:48.959Z,18.60
2023-03-21T16:39:35.811Z,18.50
2023-03-21T16:42:21.469Z,18.40
2023-03-21T16:45:30.159Z,18.50
2023-03-21T16:48:17.443Z,18.50
2023-03-21T16:50:54.686Z,18.50
2023-03-21T16:53:40.010Z,18.50
2023-03-21T16:56:22.103Z,18.40
2023-03-21T16:59:13.496Z,18.50
2023-03-21T17:01:56.701Z,18.50
2023-03-21T17:04:37.231Z,18.50
2023-03-21T17:07:16.935Z,18.40
2023-03-21T17:09:52.588Z,18.40
2023-03-21T17:12:29.444Z,18.50
2023-03-21T17:15:05.451Z,18.50
2023-03-21T17:17:44.981Z,18.50
2023-03-21T17:20:28.213Z,18.50
2023-03-21T17:23:04.963Z,18.40
2023-03-21T17:25:43.301Z,18.50
2023-03-21T17:28:19.330Z,18.50
2023-03-21T17:30:55.164Z,18.40
2023-03-21T17:33:32.729Z,18.40
2023-03-21T17:36:11.224Z,18.40
2023-03-21T17:38:47.875Z,18.40
2023-03-21T17:41:27.118Z,18.30
2023-03-21T17:44:03.454Z,18.30
2023-03-21T17:46:44.235Z,18.30
2023-03-21T17:49:23.104Z,18.30
2023-03-21T17:52:02.941Z,18.20
2023-03-21T17:54:40.146Z,18.20
2023-03-21T17:57:22.528Z,18.10
2023-03-21T17:59:59.798Z,18.10
2023-03-21T18:02:47.161Z,17.80
2023-03-21T18:05:23.910Z,17.70
2023-03-21T18:08:12.783Z,17.60
2023-03-21T18:10:49.080Z,17.50
2023-03-21T18:13:31.565Z,17.40
2023-03-21T18:16:07.222Z,17.40
2023-03-21T18:18:49.986Z,17.20
2023-03-21T18:21:32.891Z,17.10
2023-03-21T18:24:15.800Z,17.20
2023-03-21T18:26:53.649Z,17.50
2023-03-21T18:30:22.803Z,17.60
2023-03-21T18:32:29.825Z,17.60
2023-03-21T18:35:06.157Z,17.60
2023-03-21T18:37:42.175Z,17.70
2023-03-21T18:40:23.774Z,17.60
2023-03-21T18:45:56.542Z,17.50
2023-03-21T18:48:34.344Z,17.50
2023-03-21T18:51:11.594Z,17.40
2023-03-21T18:53:47.482Z,17.30
2023-03-21T18:59:23.127Z,17.30
2023-03-21T19:01:58.842Z,17.30
2023-03-21T19:04:34.928Z,17.30
2023-03-21T19:07:15.442Z,17.40
2023-03-21T19:10:17.361Z,17.40
2023-03-21T19:12:49.647Z,17.50
2023-03-21T19:15:27.145Z,17.50
2023-03-21T19:21:00.419Z,17.40
2023-03-21T19:24:16.305Z,17.30
2023-03-21T19:26:35.512Z,17.10
2023-03-21T19:29:16.244Z,17.10
2023-03-21T19:31:52.730Z,17.10
2023-03-21T19:34:28.514Z,17.20
2023-03-21T19:37:04.530Z,17.30
2023-03-21T19:39:41.987Z,17.30
2023-03-21T19:42:17.811Z,17.10
2023-03-21T19:44:56.551Z,17.10
2023-03-21T19:47:31.292Z,17.10
2023-03-21T19:53:01.778Z,17.10
2023-03-21T19:55:38.396Z,17.10
2023-03-21T19:58:13.989Z,17.00
2023-03-21T20:00:51.234Z,17.00
2023-03-21T20:03:26.711Z,17.00
2023-03-21T20:06:09.022Z,16.90
2023-03-21T20:09:13.737Z,16.80
2023-03-21T20:11:37.996Z,16.80
2023-03-21T20:14:12.885Z,16.80
2023-03-21T20:16:49.561Z,16.80
2023-03-21T20:19:26.383Z,16.80
2023-03-21T20:22:02.844Z,16.80
2023-03-21T20:24:39.052Z,16.80
2023-03-21T20:27:14.651Z,16.60
2023-03-21T20:30:08.621Z,16.60
2023-03-21T20:32:47.668Z,16.80
2023-03-21T20:35:47.979Z,17.00
2023-03-21T20:38:22.091Z,17.00
2023-03-21T20:40:56.573Z,17.00
2023-03-21T20:46:27.057Z,17.00
2023-03-21T20:49:07.393Z,17.00
2023-03-21T20:54:36.506Z,16.90
2023-03-21T20:57:11.726Z,16.60
2023-03-21T20:59:47.090Z,16.60
2023-03-21T21:02:22.783Z,16.70
2023-03-21T21:05:25.075Z,16.50
2023-03-21T21:07:54.060Z,16.40
2023-03-21T21:10:29.708Z,16.30
2023-03-21T21:13:04.837Z,16.20
2023-03-21T21:15:40.142Z,16.20
2023-03-21T21:18:15.108Z,16.50
2023-03-21T21:20:57.633Z,16.80
2023-03-21T21:23:32.833Z,16.90
2023-03-21T21:26:08.916Z,17.10
2023-03-21T21:28:44.896Z,17.20
2023-03-21T21:31:21.698Z,17.10
2023-03-21T21:33:57.458Z,17.10
2023-03-21T21:36:35.073Z,17.10
2023-03-21T21:39:10.769Z,17.20
2023-03-21T21:41:45.621Z,17.00
2023-03-21T21:44:20.973Z,16.70
2023-03-21T21:46:56.599Z,16.60
2023-03-21T21:49:32.944Z,16.60
2023-03-21T21:52:10.379Z,16.60
2023-03-21T21:54:47.806Z,16.60
2023-03-21T21:57:24.208Z,16.80
2023-03-21T22:00:00.057Z,16.90
2023-03-21T22:02:38.237Z,17.20
2023-03-21T22:05:14.968Z,17.30
2023-03-21T22:07:53.361Z,17.10
2023-03-21T22:10:28.972Z,17.10
2023-03-21T22:13:04.290Z,16.90
2023-03-21T22:15:39.481Z,16.80
2023-03-21T22:18:14.983Z,16.90
2023-03-21T22:20:50.853Z,16.70
2023-03-21T22:23:29.660Z,16.50
2023-03-21T22:26:05.191Z,16.50
2023-03-21T22:28:43.041Z,16.50
2023-03-21T22:31:19.927Z,16.40
2023-03-21T22:33:55.291Z,16.40
2023-03-21T22:36:30.403Z,16.50
2023-03-21T22:39:08.186Z,16.60
2023-03-21T22:41:43.609Z,16.40
2023-03-21T22:44:19.035Z,16.40
2023-03-21T22:46:54.079Z,16.30
2023-03-21T22:49:29.302Z,16.30
2023-03-21T22:52:06.349Z,16.20
2023-03-21T22:54:43.996Z,16.00
2023-03-21T22:57:21.492Z,16.10
2023-03-21T22:59:56.713Z,16.20
2023-03-21T23:02:32.797Z,16.00
2023-03-21T23:05:11.792Z,16.00
2023-03-21T23:07:47.942Z,16.00
2023-03-21T23:10:26.161Z,16.00
2023-03-21T23:13:01.471Z,16.10
2023-03-21T23:15:36.708Z,16.00
2023-03-21T23:18:12.944Z,16.10
2023-03-21T23:20:48.874Z,16.20
2023-03-21T23:23:24.335Z,16.20
2023-03-21T23:26:05.345Z,16.20
2023-03-21T23:28:41.169Z,16.30
2023-03-21T23:31:21.552Z,16.20
2023-03-21T23:33:57.727Z,16.20
2023-03-21T23:36:33.589Z,16.00
2023-03-21T23:39:09.482Z,16.10
2023-03-21T23:41:51.726Z,16.10
2023-03-21T23:44:31.194Z,15.90
2023-03-21T23:47:07.476Z,16.00
2023-03-21T23:49:46.855Z,16.10
2023-03-21T23:52:31.305Z,16.20
2023-03-21T23:55:07.327Z,16.30
2023-03-21T23:58:00.467Z,16.20
